createdAt,value
2023-05-14T00:00:55.502Z,88.40
2023-05-14T00:03:23.468Z,89.22
2023-05-14T00:05:51.277Z,88.93
2023-05-14T00:08:20.458Z,89.85
2023-05-14T00:10:48.201Z,89.69
2023-05-14T00:13:15.996Z,89.70
2023-05-14T00:15:44.608Z,90.18
2023-05-14T00:18:12.965Z,89.79
2023-05-14T00:20:42.406Z,89.99
2023-05-14T00:23:10.731Z,89.65
2023-05-14T00:25:40.365Z,89.47
2023-05-14T00:28:08.160Z,89.70
2023-05-14T00:30:35.885Z,89.53
2023-05-14T00:33:03.725Z,89.52
2023-05-14T00:35:31.720Z,90.00
2023-05-14T00:37:59.501Z,89.53
2023-05-14T00:40:28.500Z,89.92
2023-05-14T00:42:57.928Z,90.22
2023-05-14T00:45:26.017Z,89.50
2023-05-14T00:47:54.980Z,89.20
2023-05-14T00:50:23.835Z,89.08
2023-05-14T00:52:51.948Z,89.08
2023-05-14T00:55:20.868Z,88.97
2023-05-14T00:57:48.771Z,88.73
2023-05-14T01:00:18.733Z,88.78
2023-05-14T01:02:46.599Z,88.55
2023-05-14T01:05:14.480Z,87.93
2023-05-14T01:07:50.465Z,88.31
2023-05-14T01:10:26.542Z,87.98
2023-05-14T01:13:04.767Z,88.39
2023-05-14T01:15:37.123Z,88.18
2023-05-14T01:18:06.514Z,88.19
2023-05-14T01:20:34.322Z,87.69
2023-05-14T01:23:03.619Z,87.17
2023-05-14T01:25:32.225Z,87.53
2023-05-14T01:28:07.294Z,87.66
2023-05-14T01:30:37.913Z,87.81
2023-05-14T01:33:09.488Z,87.78
2023-05-14T01:35:37.928Z,88.17
2023-05-14T01:38:10.611Z,88.08
2023-05-14T01:40:38.279Z,88.08
2023-05-14T01:43:06.386Z,88.10
2023-05-14T01:45:37.564Z,88.39
2023-05-14T01:48:06.289Z,88.06
2023-05-14T01:50:34.251Z,87.60
2023-05-14T01:53:02.164Z,87.82
2023-05-14T01:55:31.210Z,87.68
2023-05-14T01:57:58.951Z,88.25
2023-05-14T02:00:26.926Z,87.95
2023-05-14T02:02:54.856Z,87.86
2023-05-14T02:05:22.709Z,88.23
2023-05-14T02:07:50.547Z,88.14
2023-05-14T02:10:18.357Z,88.05
2023-05-14T02:12:47.510Z,88.49
2023-05-14T02:15:15.161Z,88.84
2023-05-14T02:17:42.976Z,88.46
2023-05-14T02:20:11.680Z,88.84
2023-05-14T02:22:42.186Z,88.76
2023-05-14T02:25:11.120Z,88.88
2023-05-14T02:27:38.971Z,89.18
2023-05-14T02:30:09.873Z,89.33
2023-05-14T02:32:38.815Z,89.11
2023-05-14T02:35:07.761Z,89.39
2023-05-14T02:37:35.696Z,89.48
2023-05-14T02:40:04.470Z,89.60
2023-05-14T02:42:32.598Z,89.69
2023-05-14T02:45:00.447Z,89.67
2023-05-14T02:47:29.541Z,88.54
2023-05-14T02:49:57.261Z,88.51
2023-05-14T02:52:25.104Z,88.46
2023-05-14T02:54:53.004Z,88.92
2023-05-14T02:57:21.166Z,88.49
2023-05-14T02:59:48.932Z,88.92
2023-05-14T03:02:17.064Z,88.19
2023-05-14T03:04:47.105Z,88.98
2023-05-14T03:07:14.857Z,88.31
2023-05-14T03:09:42.677Z,88.93
2023-05-14T03:12:10.468Z,89.05
2023-05-14T03:14:38.196Z,88.81
2023-05-14T03:17:06.231Z,88.89
2023-05-14T03:19:33.957Z,88.63
2023-05-14T03:22:03.165Z,88.88
2023-05-14T03:24:31.555Z,88.93
2023-05-14T03:26:59.264Z,88.83
2023-05-14T03:29:27.181Z,89.25
2023-05-14T03:31:54.951Z,89.30
2023-05-14T03:34:22.755Z,89.60
2023-05-14T03:36:50.472Z,90.04
2023-05-14T03:39:20.151Z,90.27
2023-05-14T03:41:48.435Z,90.54
2023-05-14T03:44:16.555Z,90.14
2023-05-14T03:46:44.453Z,90.15
2023-05-14T03:49:12.255Z,90.72
2023-05-14T03:51:40.344Z,91.06
2023-05-14T03:54:08.169Z,90.64
2023-05-14T03:56:39.380Z,90.75
2023-05-14T03:59:07.182Z,90.85
2023-05-14T04:01:35.004Z,91.59
2023-05-14T04:04:02.830Z,91.86
2023-05-14T04:06:31.198Z,91.69
2023-05-14T04:08:59.125Z,92.14
2023-05-14T04:11:27.020Z,92.00
2023-05-14T04:13:56.463Z,92.48
2023-05-14T04:16:24.463Z,92.76
2023-05-14T04:18:52.477Z,92.49
2023-05-14T04:21:20.456Z,92.71
2023-05-14T04:23:48.492Z,92.60
2023-05-14T04:26:16.452Z,92.62
2023-05-14T04:28:44.349Z,92.87
2023-05-14T04:31:13.793Z,93.19
2023-05-14T04:33:41.826Z,93.09
2023-05-14T04:36:10.054Z,92.94
2023-05-14T04:38:37.733Z,93.23
2023-05-14T04:41:06.043Z,93.02
2023-05-14T04:43:33.789Z,92.78
2023-05-14T04:46:01.949Z,93.37
2023-05-14T04:48:31.161Z,93.67
2023-05-14T04:50:59.033Z,93.64
2023-05-14T04:53:26.826Z,93.40
2023-05-14T04:55:54.576Z,93.66
2023-05-14T04:58:23.583Z,93.50
2023-05-14T05:00:51.643Z,93.00
2023-05-14T05:03:19.507Z,93.51
2023-05-14T05:05:48.892Z,93.00
2023-05-14T05:08:16.775Z,92.89
2023-05-14T05:10:44.544Z,93.19
2023-05-14T05:13:12.294Z,93.05
2023-05-14T05:15:40.224Z,92.53
2023-05-14T05:18:08.188Z,92.84
2023-05-14T05:20:35.959Z,92.36
2023-05-14T05:23:05.198Z,92.48
2023-05-14T05:25:33.137Z,92.49
2023-05-14T05:28:01.181Z,92.89
2023-05-14T05:30:30.218Z,92.39
2023-05-14T05:32:58.201Z,92.58
2023-05-14T05:35:26.075Z,92.69
2023-05-14T05:37:53.936Z,92.23
2023-05-14T05:40:23.314Z,92.00
2023-05-14T05:42:51.212Z,91.95
2023-05-14T05:45:18.970Z,92.13
2023-05-14T05:47:46.728Z,92.04
2023-05-14T05:50:15.034Z,92.04
2023-05-14T05:52:42.773Z,91.84
2023-05-14T05:55:11.107Z,91.38
2023-05-14T05:57:40.212Z,90.37
2023-05-14T06:00:13.656Z,90.61
2023-05-14T06:02:42.088Z,90.55
2023-05-14T06:05:11.478Z,89.85
2023-05-14T06:07:39.650Z,89.99
2023-05-14T06:10:08.678Z,89.64
2023-05-14T06:12:36.603Z,89.41
2023-05-14T06:15:06.585Z,88.96
2023-05-14T06:17:34.342Z,89.27
2023-05-14T06:20:02.258Z,89.79
2023-05-14T06:22:29.992Z,89.97
2023-05-14T06:24:57.817Z,89.62
2023-05-14T06:27:25.601Z,89.76
2023-05-14T06:29:53.508Z,89.50
2023-05-14T06:32:22.650Z,89.57
2023-05-14T06:34:50.509Z,89.20
2023-05-14T06:37:18.350Z,89.48
2023-05-14T06:39:50.221Z,89.08
2023-05-14T06:42:18.273Z,89.20
2023-05-14T06:44:46.443Z,89.71
2023-05-14T06:47:14.210Z,89.08
2023-05-14T06:49:43.399Z,88.65
2023-05-14T06:52:11.258Z,88.29
2023-05-14T06:54:39.378Z,87.45
2023-05-14T06:57:07.279Z,87.37
2023-05-14T06:59:35.033Z,86.84
2023-05-14T07:02:03.282Z,86.39
2023-05-14T07:04:31.198Z,86.44
2023-05-14T07:07:00.478Z,85.76
2023-05-14T07:09:28.255Z,84.85
2023-05-14T07:11:55.954Z,84.92
2023-05-14T07:14:23.745Z,83.52
2023-05-14T07:16:51.559Z,83.35
2023-05-14T07:19:19.528Z,82.45
2023-05-14T07:21:48.527Z,81.72
2023-05-14T07:24:17.740Z,81.02
2023-05-14T07:26:45.600Z,81.08
2023-05-14T07:29:13.434Z,80.93
2023-05-14T07:31:41.184Z,81.05
2023-05-14T07:34:10.933Z,79.39
2023-05-14T07:36:38.827Z,79.22
2023-05-14T07:39:06.608Z,78.51
2023-05-14T07:41:35.717Z,78.18
2023-05-14T07:44:03.450Z,77.04
2023-05-14T07:46:31.227Z,77.52
2023-05-14T07:48:58.902Z,75.96
2023-05-14T07:51:28.237Z,75.36
2023-05-14T07:53:56.568Z,73.89
2023-05-14T07:56:24.299Z,74.46
2023-05-14T07:58:53.526Z,72.27
2023-05-14T08:01:21.207Z,70.96
2023-05-14T08:03:48.977Z,69.65
2023-05-14T08:06:16.804Z,68.84
2023-05-14T08:08:44.618Z,67.63
2023-05-14T08:11:12.500Z,66.43
2023-05-14T08:13:40.377Z,65.84
2023-05-14T08:16:09.777Z,64.31
2023-05-14T08:18:37.496Z,64.25
2023-05-14T08:21:05.620Z,63.95
2023-05-14T08:23:33.377Z,63.11
2023-05-14T08:26:01.414Z,62.45
2023-05-14T08:28:29.180Z,61.52
2023-05-14T08:30:57.066Z,59.02
2023-05-14T08:33:26.262Z,58.84
2023-05-14T08:35:54.293Z,59.61
2023-05-14T08:38:22.053Z,58.26
2023-05-14T08:40:50.601Z,58.23
2023-05-14T08:43:24.716Z,56.49
2023-05-14T08:45:58.873Z,56.71
2023-05-14T08:48:33.207Z,56.34
2023-05-14T08:51:01.746Z,56.61
2023-05-14T08:53:29.629Z,55.40
2023-05-14T08:55:57.488Z,54.10
2023-05-14T08:58:26.681Z,53.54
2023-05-14T09:00:55.523Z,54.20
2023-05-14T09:03:23.943Z,53.79
2023-05-14T09:05:53.326Z,52.66
2023-05-14T09:08:21.105Z,52.24
2023-05-14T09:10:48.953Z,51.25
2023-05-14T09:13:16.817Z,51.13
2023-05-14T09:15:44.522Z,50.55
2023-05-14T09:18:12.485Z,51.44
2023-05-14T09:20:41.009Z,50.66
2023-05-14T09:23:10.197Z,50.88
2023-05-14T09:25:37.966Z,50.91
2023-05-14T09:28:08.347Z,49.81
2023-05-14T09:30:37.139Z,51.23
2023-05-14T09:33:05.214Z,50.75
2023-05-14T09:35:33.540Z,51.28
2023-05-14T09:38:01.643Z,50.70
2023-05-14T09:40:30.718Z,50.70
2023-05-14T09:42:58.559Z,50.86
2023-05-14T09:45:26.420Z,51.85
2023-05-14T09:47:54.566Z,50.70
2023-05-14T09:50:22.677Z,50.78
2023-05-14T09:52:50.691Z,49.12
2023-05-14T09:55:18.861Z,48.92
2023-05-14T09:57:48.042Z,49.29
2023-05-14T10:00:17.157Z,49.68
2023-05-14T10:02:47.798Z,49.39
2023-05-14T10:05:16.320Z,49.13
2023-05-14T10:07:47.878Z,48.88
2023-05-14T10:10:17.818Z,49.71
2023-05-14T10:12:52.726Z,48.59
2023-05-14T10:15:25.152Z,48.56
2023-05-14T10:17:56.757Z,47.68
2023-05-14T10:20:26.795Z,47.27
2023-05-14T10:22:55.182Z,47.69
2023-05-14T10:25:26.416Z,48.94
2023-05-14T10:27:56.347Z,49.23
2023-05-14T10:30:24.507Z,49.92
2023-05-14T10:33:07.767Z,50.45
2023-05-14T10:35:56.261Z,49.15
2023-05-14T10:38:27.177Z,50.18
2023-05-14T10:40:59.032Z,49.99
2023-05-14T10:43:30.719Z,50.07
2023-05-14T10:45:59.393Z,48.61
2023-05-14T10:48:27.890Z,48.69
2023-05-14T10:50:58.015Z,49.49
2023-05-14T10:53:34.624Z,49.33
2023-05-14T10:56:07.623Z,49.89
2023-05-14T10:58:39.230Z,50.18
2023-05-14T11:01:08.521Z,50.48
2023-05-14T11:03:42.414Z,50.84
2023-05-14T11:06:13.165Z,51.10
2023-05-14T11:08:41.676Z,50.75
2023-05-14T11:11:10.988Z,51.35
2023-05-14T11:13:40.211Z,51.65
2023-05-14T11:16:21.670Z,51.56
2023-05-14T11:19:01.947Z,51.08
2023-05-14T11:21:30.225Z,51.88
2023-05-14T11:23:58.220Z,52.39
2023-05-14T11:26:27.124Z,51.54
2023-05-14T11:28:56.868Z,51.74
2023-05-14T11:31:25.344Z,50.26
2023-05-14T11:33:53.475Z,50.25
2023-05-14T11:36:21.606Z,50.09
2023-05-14T11:38:51.576Z,50.86
2023-05-14T11:41:21.292Z,50.35
2023-05-14T11:43:49.373Z,50.09
2023-05-14T11:46:19.769Z,51.21
2023-05-14T11:48:48.045Z,51.30
2023-05-14T11:51:16.030Z,51.81
2023-05-14T11:53:43.858Z,52.43
2023-05-14T11:56:11.674Z,50.55
2023-05-14T11:58:39.562Z,50.30
2023-05-14T12:01:07.579Z,50.54
2023-05-14T12:03:38.303Z,51.04
2023-05-14T12:06:08.236Z,50.41
2023-05-14T12:08:36.306Z,49.87
2023-05-14T12:11:04.155Z,49.49
2023-05-14T12:13:32.679Z,48.51
2023-05-14T12:16:02.455Z,48.97
2023-05-14T12:18:32.167Z,49.50
2023-05-14T12:21:05.185Z,49.82
2023-05-14T12:23:33.795Z,49.51
2023-05-14T12:26:06.904Z,49.05
2023-05-14T12:28:38.507Z,49.07
2023-05-14T12:31:06.957Z,49.21
2023-05-14T12:33:34.801Z,48.14
2023-05-14T12:36:20.335Z,48.55
2023-05-14T12:38:49.782Z,46.58
2023-05-14T12:41:18.230Z,46.85
2023-05-14T12:43:46.386Z,47.33
2023-05-14T12:46:14.168Z,46.95
2023-05-14T12:48:41.941Z,45.95
2023-05-14T12:51:11.137Z,43.98
2023-05-14T12:53:38.949Z,43.84
2023-05-14T12:56:07.509Z,43.34
2023-05-14T12:58:35.552Z,42.30
2023-05-14T13:01:03.380Z,43.04
2023-05-14T13:03:31.154Z,43.11
2023-05-14T13:05:59.054Z,43.64
2023-05-14T13:08:28.371Z,43.75
2023-05-14T13:10:57.060Z,42.26
2023-05-14T13:13:24.932Z,42.29
2023-05-14T13:15:54.252Z,42.58
2023-05-14T13:18:22.308Z,42.24
2023-05-14T13:20:50.118Z,42.12
2023-05-14T13:23:17.946Z,42.40
2023-05-14T13:25:49.130Z,42.16
2023-05-14T13:28:17.734Z,41.51
2023-05-14T13:31:05.153Z,41.35
2023-05-14T13:33:33.521Z,41.09
2023-05-14T13:36:01.447Z,40.04
2023-05-14T13:38:29.394Z,39.77
2023-05-14T13:41:02.188Z,40.57
2023-05-14T13:43:31.112Z,40.76
2023-05-14T13:45:59.514Z,40.54
2023-05-14T13:48:27.732Z,40.50
2023-05-14T13:50:55.670Z,40.52
2023-05-14T13:53:25.115Z,41.02
2023-05-14T13:55:56.273Z,40.35
2023-05-14T13:58:26.338Z,40.19
2023-05-14T14:00:54.364Z,40.21
2023-05-14T14:03:22.142Z,40.34
2023-05-14T14:05:50.099Z,39.88
2023-05-14T14:08:23.902Z,40.86
2023-05-14T14:10:52.550Z,40.76
2023-05-14T14:13:21.201Z,40.36
2023-05-14T14:15:51.170Z,41.26
2023-05-14T14:18:19.118Z,41.52
2023-05-14T14:20:46.875Z,41.59
2023-05-14T14:23:14.615Z,41.75
2023-05-14T14:25:42.424Z,41.45
2023-05-14T14:28:10.145Z,41.19
2023-05-14T14:30:37.826Z,41.20
2023-05-14T14:33:07.090Z,41.52
2023-05-14T14:35:35.761Z,40.19
2023-05-14T14:38:03.622Z,40.93
2023-05-14T14:40:31.384Z,40.21
2023-05-14T14:42:59.200Z,38.97
2023-05-14T14:45:26.982Z,39.61
2023-05-14T14:48:25.942Z,39.34
2023-05-14T14:50:54.261Z,39.90
2023-05-14T14:53:23.000Z,40.30
2023-05-14T14:55:51.410Z,41.10
2023-05-14T14:58:20.620Z,40.64
2023-05-14T15:00:49.089Z,41.17
2023-05-14T15:03:16.952Z,40.70
2023-05-14T15:05:46.208Z,40.13
2023-05-14T15:08:14.109Z,40.23
2023-05-14T15:10:41.901Z,40.99
2023-05-14T15:13:10.370Z,40.10
2023-05-14T15:15:38.437Z,39.69
2023-05-14T15:18:06.350Z,39.73
2023-05-14T15:20:34.170Z,39.56
2023-05-14T15:23:03.787Z,41.05
2023-05-14T15:25:31.642Z,40.67
2023-05-14T15:28:01.490Z,40.31
2023-05-14T15:30:29.305Z,40.91
2023-05-14T15:32:57.150Z,41.22
2023-05-14T15:35:25.170Z,40.21
2023-05-14T15:37:56.970Z,40.42
2023-05-14T15:40:26.183Z,41.05
2023-05-14T15:42:54.106Z,40.84
2023-05-14T15:45:22.099Z,40.60
2023-05-14T15:47:50.013Z,40.57
2023-05-14T15:50:17.864Z,40.73
2023-05-14T15:52:45.737Z,41.12
2023-05-14T15:55:13.444Z,41.30
2023-05-14T15:57:42.719Z,41.83
2023-05-14T16:00:11.661Z,41.36
2023-05-14T16:02:40.327Z,42.00
2023-05-14T16:05:09.028Z,41.10
2023-05-14T16:07:37.442Z,41.24
2023-05-14T16:10:06.068Z,41.33
2023-05-14T16:12:34.272Z,41.12
2023-05-14T16:15:03.708Z,42.03
2023-05-14T16:17:32.858Z,42.15
2023-05-14T16:20:01.270Z,41.64
2023-05-14T16:22:29.552Z,41.22
2023-05-14T16:24:57.619Z,41.39
2023-05-14T16:27:26.053Z,41.44
2023-05-14T16:29:54.123Z,41.47
2023-05-14T16:32:24.931Z,41.43
2023-05-14T16:34:52.825Z,41.37
2023-05-14T16:37:20.883Z,41.11
2023-05-14T16:39:49.042Z,40.71
2023-05-14T16:42:16.902Z,41.15
2023-05-14T16:44:44.741Z,41.12
2023-05-14T16:47:13.100Z,41.42
2023-05-14T16:49:43.260Z,42.09
2023-05-14T16:52:11.368Z,42.28
2023-05-14T16:54:39.291Z,42.01
2023-05-14T16:57:07.333Z,42.80
2023-05-14T16:59:35.208Z,43.26
2023-05-14T17:02:03.142Z,43.67
2023-05-14T17:04:32.983Z,43.79
2023-05-14T17:07:02.252Z,44.07
2023-05-14T17:09:30.129Z,43.00
2023-05-14T17:11:58.141Z,43.28
2023-05-14T17:14:26.230Z,43.34
2023-05-14T17:16:55.973Z,42.89
2023-05-14T17:19:23.875Z,43.25
2023-05-14T17:21:51.681Z,43.56
2023-05-14T17:24:20.804Z,44.04
2023-05-14T17:26:48.812Z,44.32
2023-05-14T17:29:16.569Z,43.70
2023-05-14T17:31:44.391Z,44.32
2023-05-14T17:34:12.198Z,44.80
2023-05-14T17:36:40.087Z,45.29
2023-05-14T17:39:07.842Z,45.72
2023-05-14T17:41:37.033Z,45.56
2023-05-14T17:44:05.016Z,45.81
2023-05-14T17:46:33.757Z,46.21
2023-05-14T17:49:01.554Z,46.86
2023-05-14T17:51:29.319Z,47.41
2023-05-14T17:53:57.256Z,47.36
2023-05-14T17:56:25.149Z,47.69
2023-05-14T17:58:54.298Z,47.82
2023-05-14T18:01:22.255Z,47.82
2023-05-14T18:03:50.192Z,48.63
2023-05-14T18:06:18.087Z,49.14
2023-05-14T18:08:45.871Z,49.74
2023-05-14T18:11:13.689Z,50.75
2023-05-14T18:13:41.419Z,51.08
2023-05-14T18:16:10.802Z,51.23
2023-05-14T18:18:38.711Z,51.80
2023-05-14T18:21:06.494Z,52.90
2023-05-14T18:23:34.387Z,53.13
2023-05-14T18:26:02.609Z,53.41
2023-05-14T18:28:30.384Z,53.59
2023-05-14T18:30:58.306Z,54.85
2023-05-14T18:33:29.796Z,55.28
2023-05-14T18:35:57.953Z,55.29
2023-05-14T18:38:26.057Z,55.62
2023-05-14T18:40:53.886Z,56.24
2023-05-14T18:43:21.657Z,55.90
2023-05-14T18:45:49.552Z,56.50
2023-05-14T18:48:17.437Z,57.00
2023-05-14T18:50:46.781Z,57.33
2023-05-14T18:53:14.803Z,57.18
2023-05-14T18:55:42.679Z,57.39
2023-05-14T18:58:10.540Z,57.87
2023-05-14T19:00:38.312Z,58.67
2023-05-14T19:03:06.259Z,58.84
2023-05-14T19:05:34.297Z,59.27
2023-05-14T19:08:03.729Z,59.77
2023-05-14T19:10:31.624Z,60.41
2023-05-14T19:12:59.642Z,60.41
2023-05-14T19:15:27.711Z,60.58
2023-05-14T19:17:56.046Z,61.06
2023-05-14T19:20:24.140Z,61.90
2023-05-14T19:22:52.019Z,61.75
2023-05-14T19:25:21.286Z,62.18
2023-05-14T19:27:51.142Z,62.72
2023-05-14T19:30:20.623Z,62.68
2023-05-14T19:32:48.619Z,62.17
2023-05-14T19:35:16.937Z,61.73
2023-05-14T19:37:44.896Z,62.11
2023-05-14T19:40:13.092Z,62.53
2023-05-14T19:42:42.323Z,62.38
2023-05-14T19:45:10.557Z,62.40
2023-05-14T19:47:38.711Z,62.82
2023-05-14T19:50:08.472Z,63.21
2023-05-14T19:52:36.247Z,63.42
2023-05-14T19:55:04.255Z,63.78
2023-05-14T19:57:31.997Z,63.58
2023-05-14T20:00:01.184Z,63.79
2023-05-14T20:02:29.215Z,64.83
2023-05-14T20:04:57.997Z,65.60
2023-05-14T20:07:26.856Z,66.02
2023-05-14T20:09:54.616Z,66.91
2023-05-14T20:12:22.589Z,66.98
2023-05-14T20:14:50.837Z,67.49
2023-05-14T20:17:20.824Z,67.20
2023-05-14T20:19:48.759Z,67.43
2023-05-14T20:22:16.565Z,67.64
2023-05-14T20:24:44.640Z,67.36
2023-05-14T20:27:12.424Z,67.10
2023-05-14T20:29:40.282Z,67.31
2023-05-14T20:32:08.814Z,67.11
2023-05-14T20:34:38.020Z,67.95
2023-05-14T20:37:06.707Z,68.95
2023-05-14T20:39:34.550Z,68.68
2023-05-14T20:42:02.307Z,69.24
2023-05-14T20:44:30.184Z,69.59
2023-05-14T20:46:58.031Z,69.94
2023-05-14T20:49:25.845Z,70.12
2023-05-14T20:51:55.197Z,69.94
2023-05-14T20:54:22.954Z,69.87
2023-05-14T20:56:50.769Z,69.89
2023-05-14T20:59:18.561Z,70.13
2023-05-14T21:01:46.420Z,70.33
2023-05-14T21:04:15.152Z,70.55
2023-05-14T21:06:43.268Z,70.92
2023-05-14T21:09:12.407Z,71.28
2023-05-14T21:11:40.131Z,71.29
2023-05-14T21:14:07.898Z,71.25
2023-05-14T21:16:35.669Z,71.86
2023-05-14T21:19:03.494Z,73.07
2023-05-14T21:21:31.316Z,73.70
2023-05-14T21:23:59.083Z,74.48
2023-05-14T21:26:33.060Z,74.46
2023-05-14T21:29:01.828Z,74.59
2023-05-14T21:31:29.618Z,74.93
2023-05-14T21:33:57.337Z,75.19
2023-05-14T21:36:25.339Z,75.61
2023-05-14T21:38:53.689Z,74.93
2023-05-14T21:41:21.719Z,75.05
2023-05-14T21:43:50.887Z,75.25
2023-05-14T21:46:19.153Z,75.53
2023-05-14T21:48:46.943Z,75.34
2023-05-14T21:51:14.963Z,75.98
2023-05-14T21:53:42.731Z,75.78
2023-05-14T21:56:10.539Z,76.04
2023-05-14T21:58:38.433Z,75.89
2023-05-14T22:01:09.056Z,76.10
2023-05-14T22:03:36.967Z,76.58
2023-05-14T22:06:05.392Z,76.87
2023-05-14T22:08:33.111Z,77.25
2023-05-14T22:11:00.817Z,77.26
2023-05-14T22:13:28.571Z,77.22
2023-05-14T22:16:09.286Z,76.97
2023-05-14T22:18:42.635Z,77.21
2023-05-14T22:21:10.579Z,77.61
2023-05-14T22:23:38.363Z,77.61
2023-05-14T22:26:06.146Z,77.65
2023-05-14T22:28:33.865Z,77.35
2023-05-14T22:31:01.732Z,77.95
2023-05-14T22:33:29.983Z,77.18
2023-05-14T22:35:59.086Z,76.75
2023-05-14T22:38:26.848Z,76.70
2023-05-14T22:40:54.549Z,76.49
2023-05-14T22:43:22.403Z,76.39
2023-05-14T22:45:50.320Z,76.74
2023-05-14T22:48:18.197Z,76.70
2023-05-14T22:50:45.944Z,76.83
2023-05-14T22:53:15.067Z,77.46
2023-05-14T22:55:42.849Z,77.51
2023-05-14T22:58:10.570Z,78.15
2023-05-14T23:00:38.437Z,77.63
2023-05-14T23:03:06.223Z,77.68
2023-05-14T23:05:34.055Z,78.40
2023-05-14T23:08:01.937Z,77.73
2023-05-14T23:10:31.264Z,78.18
2023-05-14T23:12:59.029Z,78.29
2023-05-14T23:15:27.004Z,79.02
2023-05-14T23:17:55.006Z,78.61
2023-05-14T23:20:22.768Z,78.43
2023-05-14T23:22:50.588Z,78.96
2023-05-14T23:25:18.464Z,79.09
2023-05-14T23:27:47.955Z,79.54
2023-05-14T23:30:15.843Z,79.57
2023-05-14T23:32:43.651Z,80.08
2023-05-14T23:35:11.610Z,80.25
2023-05-14T23:37:42.951Z,80.24
2023-05-14T23:40:11.332Z,80.24
2023-05-14T23:42:39.030Z,80.20
2023-05-14T23:45:09.602Z,80.95
2023-05-14T23:47:37.436Z,80.84
2023-05-14T23:50:05.735Z,80.47
2023-05-14T23:52:33.781Z,80.52
2023-05-14T23:55:01.803Z,80.01
2023-05-14T23:57:29.648Z,80.24
2023-05-14T23:59:57.414Z,80.52
